Time;durP1;ratioP1;P1;durP2;ratioP2;P2;SDS_P1;SDS_P2;PMS_P1;PMS_P2;Temp;Humidity;BMP_temperature;BMP_pressure;BME280_temperature;BME280_humidity;BME280_pressure;Samples;Min_cycle;Max_cycle;Signal;HPM_P1;HPM_P2
2023/08/03 00:00:16;;;;;;;4.57;2.95;;;20.10;99.90;;;;;;5008829;28;20049;-55
2023/08/03 00:02:44;;;;;;;5.90;2.28;;;20.00;99.90;;;;;;5010736;28;20034;-54
2023/08/03 00:05:16;;;;;;;4.10;2.17;;;20.00;99.90;;;;;;5009085;28;20137;-54
2023/08/03 00:07:47;;;;;;;6.13;2.67;;;19.90;99.90;;;;;;5011124;28;20387;-56
2023/08/03 00:10:15;;;;;;;5.85;2.60;;;19.90;99.90;;;;;;5010784;28;20398;-57
2023/08/03 00:12:43;;;;;;;4.32;2.22;;;19.70;99.90;;;;;;5008648;28;20046;-57
2023/08/03 00:15:11;;;;;;;3.97;2.08;;;19.70;99.90;;;;;;4996142;28;20034;-55
2023/08/03 00:17:38;;;;;;;4.28;2.13;;;19.70;99.90;;;;;;5007842;28;20146;-57
2023/08/03 00:20:05;;;;;;;;;;;19.60;99.90;;;;;;4992054;28;20555;-56
2023/08/03 00:22:33;;;;;;;3.38;1.98;;;19.50;99.90;;;;;;4991536;28;19925;-58
2023/08/03 00:25:00;;;;;;;7.30;1.90;;;19.50;99.90;;;;;;4993775;28;20046;-55
2023/08/03 00:27:28;;;;;;;4.22;2.22;;;19.50;99.90;;;;;;4991513;28;20125;-57
2023/08/03 00:29:55;;;;;;;1.95;1.63;;;19.40;99.90;;;;;;5007629;28;20054;-53
2023/08/03 00:32:22;;;;;;;4.22;2.20;;;19.40;99.90;;;;;;4991296;28;20049;-59
2023/08/03 00:34:49;;;;;;;;;;;19.40;99.90;;;;;;4992490;28;20046;-54
2023/08/03 00:37:16;;;;;;;6.88;1.95;;;19.40;99.90;;;;;;4990944;28;19928;-58
2023/08/03 00:39:43;;;;;;;3.22;1.58;;;19.30;99.90;;;;;;4991104;28;20052;-57
2023/08/03 00:42:10;;;;;;;3.05;1.80;;;19.30;99.90;;;;;;4988522;28;20046;-56
2023/08/03 00:44:37;;;;;;;4.78;1.40;;;19.20;99.90;;;;;;4989443;28;20070;-57
2023/08/03 00:47:04;;;;;;;2.78;1.40;;;19.10;99.90;;;;;;4990557;28;20122;-56
2023/08/03 00:49:32;;;;;;;5.80;1.73;;;19.00;99.90;;;;;;4996441;28;20117;-56
2023/08/03 00:51:59;;;;;;;5.13;2.08;;;18.90;99.90;;;;;;4999022;28;20057;-56
2023/08/03 00:54:26;;;;;;;4.32;1.45;;;18.70;99.90;;;;;;5018598;28;20045;-54
2023/08/03 00:56:54;;;;;;;6.72;1.08;;;18.60;99.90;;;;;;5025313;28;20038;-58
2023/08/03 00:59:20;;;;;;;;;;;18.50;99.90;;;;;;5013173;28;20133;-58
2023/08/03 01:01:47;;;;;;;1.88;1.02;;;18.50;99.90;;;;;;5014648;28;19943;-53
2023/08/03 01:04:14;;;;;;;5.25;1.42;;;18.50;99.90;;;;;;5018290;28;20047;-55
2023/08/03 01:06:41;;;;;;;3.25;1.20;;;18.40;99.90;;;;;;5029451;28;20467;-54
2023/08/03 01:09:08;;;;;;;4.50;1.45;;;18.30;99.90;;;;;;5013706;28;20069;-54
2023/08/03 01:11:35;;;;;;;6.00;1.33;;;18.20;99.90;;;;;;5017902;28;20465;-56
2023/08/03 01:14:02;;;;;;;4.25;1.30;;;18.10;99.90;;;;;;5025101;28;20079;-53
2023/08/03 01:16:29;;;;;;;4.72;1.10;;;18.10;99.90;;;;;;5016319;28;20052;-57
2023/08/03 01:18:56;;;;;;;8.35;1.45;;;18.00;99.90;;;;;;5019980;28;20120;-57
2023/08/03 01:21:25;;;;;;;4.10;1.27;;;17.90;99.90;;;;;;5019794;28;20127;-54
2023/08/03 01:23:52;;;;;;;4.53;1.35;;;17.80;99.90;;;;;;5016458;28;20466;-53
2023/08/03 01:26:19;;;;;;;2.42;1.50;;;17.80;99.90;;;;;;5013546;28;20568;-58
2023/08/03 01:28:46;;;;;;;6.85;1.77;;;17.70;99.90;;;;;;5013414;28;20073;-54
2023/08/03 01:31:14;;;;;;;7.75;1.75;;;17.50;99.90;;;;;;5019433;28;20140;-56
2023/08/03 01:33:41;;;;;;;2.80;1.60;;;17.40;99.90;;;;;;5020556;28;20045;-57
2023/08/03 01:36:08;;;;;;;7.10;1.83;;;17.20;99.90;;;;;;5016142;28;20048;-55
2023/08/03 01:38:35;;;;;;;7.47;2.30;;;17.10;99.90;;;;;;5014930;28;20128;-55
2023/08/03 01:41:01;;;;;;;6.72;1.90;;;16.90;99.90;;;;;;5017797;28;20041;-57
2023/08/03 01:43:28;;;;;;;9.65;2.17;;;16.80;99.90;;;;;;5015877;28;20048;-56
2023/08/03 01:45:56;;;;;;;6.53;2.00;;;16.80;99.90;;;;;;5013163;28;20140;-54
2023/08/03 01:48:22;;;;;;;8.70;2.35;;;16.70;99.90;;;;;;5010905;28;20034;-55
2023/08/03 01:50:49;;;;;;;7.82;2.05;;;16.70;99.90;;;;;;5017922;28;20069;-56
2023/08/03 01:53:17;;;;;;;12.50;2.78;;;16.60;99.90;;;;;;5016761;28;20487;-57
2023/08/03 01:55:48;;;;;;;9.18;2.72;;;16.60;99.90;;;;;;5013774;28;20041;-57
2023/08/03 01:58:15;;;;;;;9.40;2.75;;;16.50;99.90;;;;;;5025885;28;20079;-59
2023/08/03 02:00:41;;;;;;;10.55;2.90;;;16.40;99.90;;;;;;5011124;28;20380;-59
2023/08/03 02:03:08;;;;;;;9.70;2.25;;;16.40;99.90;;;;;;5020253;28;20537;-55
2023/08/03 02:05:35;;;;;;;5.50;2.20;;;16.40;99.90;;;;;;5005864;28;20050;-56
2023/08/03 02:08:02;;;;;;;9.95;2.10;;;16.40;99.90;;;;;;5011826;28;20052;-57
2023/08/03 02:10:29;;;;;;;8.35;2.45;;;16.40;99.90;;;;;;5012418;28;20044;-59
2023/08/03 02:12:55;;;;;;;9.95;2.53;;;16.30;99.90;;;;;;5019903;28;20049;-57
2023/08/03 02:15:22;;;;;;;10.55;2.38;;;16.30;99.90;;;;;;5012569;28;20399;-58
2023/08/03 02:17:49;;;;;;;11.38;2.72;;;16.30;99.90;;;;;;5016841;28;20132;-58
2023/08/03 02:20:16;;;;;;;9.52;2.30;;;16.30;99.90;;;;;;5009992;28;20045;-55
2023/08/03 02:22:44;;;;;;;10.90;2.28;;;16.30;99.90;;;;;;5038912;28;20052;-56
2023/08/03 02:25:11;;;;;;;8.00;2.55;;;16.20;99.90;;;;;;5033521;28;20546;-57
2023/08/03 02:27:38;;;;;;;8.43;3.22;;;16.30;99.90;;;;;;5007737;28;20123;-59
2023/08/03 02:30:05;;;;;;;7.43;2.15;;;16.30;99.90;;;;;;5010985;28;20140;-55
2023/08/03 02:32:36;;;;;;;9.05;2.75;;;16.30;99.90;;;;;;5016474;28;20560;-58
2023/08/03 02:35:04;;;;;;;6.32;2.22;;;16.30;99.90;;;;;;5012388;28;20038;-54
2023/08/03 02:37:31;;;;;;;15.07;2.75;;;16.30;99.90;;;;;;5022084;28;20073;-57
2023/08/03 02:40:01;;;;;;;9.15;2.45;;;16.30;99.90;;;;;;5012887;28;20054;-58
2023/08/03 02:42:30;;;;;;;10.02;2.30;;;16.30;99.90;;;;;;5011309;28;20100;-53
2023/08/03 02:44:56;;;;;;;9.40;2.65;;;16.30;99.90;;;;;;5007473;28;20058;-55
2023/08/03 02:47:24;;;;;;;6.80;2.30;;;16.20;99.90;;;;;;5005201;28;20511;-58
2023/08/03 02:49:52;;;;;;;6.70;2.38;;;16.20;99.90;;;;;;5006048;28;20506;-57
2023/08/03 02:52:19;;;;;;;10.18;2.65;;;16.20;99.90;;;;;;5016674;28;20048;-58
2023/08/03 02:54:47;;;;;;;31.35;3.83;;;16.20;99.90;;;;;;5006221;28;20067;-58
2023/08/03 02:57:17;;;;;;;40.35;4.28;;;16.20;99.90;;;;;;4995218;28;20042;-55
2023/08/03 02:59:46;;;;;;;10.30;2.72;;;16.20;99.90;;;;;;5011789;28;20041;-54
2023/08/03 03:02:18;;;;;;;9.18;2.30;;;16.20;99.90;;;;;;5016154;28;20081;-59
2023/08/03 03:04:45;;;;;;;11.70;2.25;;;16.30;99.90;;;;;;5008710;28;20121;-58
2023/08/03 03:07:12;;;;;;;12.90;2.47;;;16.20;99.90;;;;;;5017324;28;20124;-55
2023/08/03 03:09:40;;;;;;;11.70;2.83;;;16.30;99.90;;;;;;5013990;28;20034;-57
2023/08/03 03:12:07;;;;;;;;;;;16.20;99.90;;;;;;5008638;28;20053;-54
2023/08/03 03:14:43;;;;;;;7.65;3.03;;;16.20;99.90;;;;;;5011642;28;19968;-58
2023/08/03 03:17:10;;;;;;;4.22;2.25;;;16.20;99.90;;;;;;5020234;28;20415;-57
2023/08/03 03:19:37;;;;;;;8.40;2.13;;;16.20;99.90;;;;;;5008766;28;20048;-56
2023/08/03 03:22:07;;;;;;;5.65;2.13;;;16.20;99.90;;;;;;5011516;28;20077;-56
2023/08/03 03:24:34;;;;;;;5.97;1.70;;;16.20;99.90;;;;;;5015695;28;20041;-55
2023/08/03 03:27:01;;;;;;;;;;;16.20;99.90;;;;;;5014035;28;20459;-56
2023/08/03 03:29:30;;;;;;;3.92;2.13;;;16.20;99.90;;;;;;5020675;28;20444;-59
2023/08/03 03:31:57;;;;;;;3.80;1.95;;;16.30;99.90;;;;;;5010424;28;20049;-58
2023/08/03 03:34:25;;;;;;;6.63;2.13;;;16.30;99.90;;;;;;5012516;28;20049;-59
2023/08/03 03:36:55;;;;;;;6.82;1.88;;;16.40;99.90;;;;;;5021394;28;20045;-55
2023/08/03 03:39:21;;;;;;;6.38;1.80;;;16.30;99.90;;;;;;5014824;28;20062;-58
2023/08/03 03:41:50;;;;;;;5.13;1.95;;;16.20;99.90;;;;;;5008889;28;20038;-58
2023/08/03 03:44:18;;;;;;;4.75;2.42;;;16.30;99.90;;;;;;5013799;28;20041;-58
2023/08/03 03:46:45;;;;;;;8.52;1.75;;;16.20;99.90;;;;;;5008510;28;20049;-58
2023/08/03 03:49:12;;;;;;;2.45;1.60;;;16.30;99.90;;;;;;5008767;28;20077;-56
2023/08/03 03:51:39;;;;;;;8.65;2.38;;;16.30;99.90;;;;;;5011660;28;20050;-58
2023/08/03 03:54:08;;;;;;;8.55;2.17;;;16.30;99.90;;;;;;5011114;28;20061;-59
2023/08/03 03:56:35;;;;;;;4.65;1.77;;;16.30;99.90;;;;;;5007066;28;20045;-58
2023/08/03 03:59:02;;;;;;;4.93;1.63;;;16.20;99.90;;;;;;5010080;28;20557;-59
2023/08/03 04:01:30;;;;;;;6.25;1.90;;;16.30;99.90;;;;;;5014357;28;20060;-58
2023/08/03 04:03:57;;;;;;;6.18;1.75;;;16.30;99.90;;;;;;5017816;28;20042;-57
2023/08/03 04:06:24;;;;;;;6.50;1.90;;;16.30;99.90;;;;;;5010343;28;20080;-54
2023/08/03 04:08:51;;;;;;;11.38;2.35;;;16.30;99.90;;;;;;5016905;28;20485;-59
2023/08/03 04:11:17;;;;;;;8.50;1.90;;;16.30;99.90;;;;;;5014769;28;20053;-55
2023/08/03 04:13:44;;;;;;;5.07;1.85;;;16.30;99.90;;;;;;5018068;28;20026;-59
2023/08/03 04:16:11;;;;;;;3.35;1.67;;;16.30;99.90;;;;;;5019963;28;20052;-57
2023/08/03 04:18:39;;;;;;;6.50;1.52;;;16.30;99.90;;;;;;5005761;28;20044;-59
2023/08/03 04:21:06;;;;;;;3.60;1.60;;;16.30;99.90;;;;;;5014034;28;20049;-58
2023/08/03 04:23:32;;;;;;;4.72;1.85;;;16.20;99.90;;;;;;5012017;28;20044;-56
2023/08/03 04:26:03;;;;;;;5.93;1.45;;;16.20;99.90;;;;;;5009695;28;20140;-57
2023/08/03 04:28:30;;;;;;;5.88;2.33;;;16.20;99.90;;;;;;5009355;28;20041;-59
2023/08/03 04:30:57;;;;;;;9.05;1.55;;;16.20;99.90;;;;;;5009076;28;20046;-58
2023/08/03 04:33:24;;;;;;;4.15;1.83;;;16.20;99.90;;;;;;5006097;28;20051;-58
2023/08/03 04:35:55;;;;;;;14.60;2.33;;;16.20;99.90;;;;;;5017839;28;20577;-57
2023/08/03 04:38:26;;;;;;;15.18;3.50;;;16.20;99.90;;;;;;5023676;28;20037;-59
2023/08/03 04:41:01;;;;;;;6.05;2.00;;;16.10;99.90;;;;;;5013878;28;20050;-59
2023/08/03 04:43:30;;;;;;;11.45;2.60;;;16.10;99.90;;;;;;5006965;28;20045;-58
2023/08/03 04:45:57;;;;;;;9.82;2.55;;;16.10;99.90;;;;;;5027234;28;20052;-58
2023/08/03 04:48:24;;;;;;;9.25;2.70;;;16.10;99.90;;;;;;5022377;28;20124;-57
2023/08/03 04:50:52;;;;;;;16.65;3.47;;;16.10;99.90;;;;;;5014114;28;20049;-55
2023/08/03 04:53:21;;;;;;;13.77;3.28;;;16.10;99.90;;;;;;5018223;28;20396;-57
2023/08/03 04:55:48;;;;;;;;;;;16.10;99.90;;;;;;5024925;28;20108;-57
2023/08/03 04:58:15;;;;;;;13.23;3.25;;;16.10;99.90;;;;;;5017711;28;20368;-59
2023/08/03 05:00:46;;;;;;;6.68;2.58;;;16.10;99.90;;;;;;5020455;28;20149;-58
2023/08/03 05:03:12;;;;;;;7.35;2.67;;;16.10;99.90;;;;;;5011404;28;20044;-59
2023/08/03 05:05:39;;;;;;;12.50;3.42;;;16.10;99.90;;;;;;5028437;28;20042;-59
2023/08/03 05:08:07;;;;;;;12.45;3.28;;;16.10;99.90;;;;;;5015579;28;20145;-58
2023/08/03 05:10:34;;;;;;;25.80;4.10;;;16.10;99.90;;;;;;5020773;28;20415;-57
2023/08/03 05:13:01;;;;;;;12.98;2.97;;;16.00;99.90;;;;;;5016141;28;20479;-57
2023/08/03 05:15:28;;;;;;;3.53;2.05;;;16.00;99.90;;;;;;5025432;28;20872;-57
2023/08/03 05:17:55;;;;;;;10.25;2.40;;;15.90;99.90;;;;;;5010423;28;20096;-57
2023/08/03 05:20:22;;;;;;;7.60;2.20;;;15.90;99.90;;;;;;5000775;28;20057;-58
2023/08/03 05:22:50;;;;;;;9.68;3.10;;;15.90;99.90;;;;;;5014565;28;20041;-56
2023/08/03 05:25:17;;;;;;;8.75;2.40;;;15.80;99.90;;;;;;5028822;28;20038;-55
2023/08/03 05:27:43;;;;;;;6.47;2.00;;;15.80;99.90;;;;;;5019560;28;20494;-58
2023/08/03 05:30:10;;;;;;;6.00;2.00;;;15.80;99.90;;;;;;5005056;28;20065;-56
2023/08/03 05:32:37;;;;;;;6.38;2.33;;;15.80;99.90;;;;;;5014042;28;20518;-56
2023/08/03 05:35:04;;;;;;;6.45;2.47;;;15.80;99.90;;;;;;5018899;28;20068;-57
2023/08/03 05:37:31;;;;;;;5.75;2.20;;;15.80;99.90;;;;;;5019492;28;20030;-57
2023/08/03 05:40:02;;;;;;;5.28;2.15;;;15.80;99.90;;;;;;5000634;28;20053;-58
2023/08/03 05:42:38;;;;;;;5.78;2.40;;;15.80;99.90;;;;;;5015975;28;20048;-57
2023/08/03 05:45:14;;;;;;;4.28;1.80;;;15.90;99.90;;;;;;5031319;28;20049;-59
2023/08/03 05:47:40;;;;;;;6.53;2.80;;;15.90;99.90;;;;;;5009093;28;20039;-56
2023/08/03 05:50:13;;;;;;;6.25;2.83;;;15.90;99.90;;;;;;5021128;28;20522;-58
2023/08/03 05:52:40;;;;;;;5.07;2.03;;;15.80;99.90;;;;;;5028530;28;20487;-56
2023/08/03 05:55:11;;;;;;;2.63;1.83;;;15.90;99.90;;;;;;5024712;28;20046;-57
2023/08/03 05:57:38;;;;;;;4.20;2.10;;;16.10;99.90;;;;;;5019231;28;20041;-59
2023/08/03 06:00:14;;;;;;;3.28;1.80;;;16.20;99.90;;;;;;5013591;28;20510;-57
2023/08/03 06:02:43;;;;;;;4.35;1.92;;;16.20;99.90;;;;;;5028330;28;20411;-58
2023/08/03 06:05:38;;;;;;;3.13;1.98;;;16.30;99.90;;;;;;5013681;28;20108;-57
2023/08/03 06:08:19;;;;;;;3.75;1.95;;;16.30;99.90;;;;;;5023221;28;20073;-59
2023/08/03 06:10:51;;;;;;;4.03;2.15;;;16.30;99.90;;;;;;5032499;28;20046;-58
2023/08/03 06:13:25;;;;;;;4.10;2.42;;;16.40;99.90;;;;;;5031244;28;20045;-59
2023/08/03 06:15:51;;;;;;;8.68;1.73;;;16.40;99.90;;;;;;5012449;28;20038;-57
2023/08/03 06:18:20;;;;;;;2.63;1.40;;;16.40;99.90;;;;;;5020373;28;20057;-58
2023/08/03 06:20:49;;;;;;;2.70;1.55;;;16.40;99.90;;;;;;5018291;28;20034;-54
2023/08/03 06:23:19;;;;;;;3.97;1.73;;;16.40;99.90;;;;;;5032112;28;20048;-57
2023/08/03 06:25:48;;;;;;;2.22;1.55;;;16.40;99.90;;;;;;5018538;28;20501;-59
2023/08/03 06:28:16;;;;;;;5.03;2.28;;;16.40;99.90;;;;;;5021946;28;20045;-56
2023/08/03 06:30:44;;;;;;;11.50;2.65;;;16.40;99.90;;;;;;5017382;28;20046;-55
2023/08/03 06:33:13;;;;;;;4.68;1.90;;;16.50;99.90;;;;;;5022003;28;20052;-55
2023/08/03 06:35:42;;;;;;;8.82;2.10;;;16.40;99.90;;;;;;5025344;28;20395;-57
2023/08/03 06:38:12;;;;;;;2.60;1.77;;;16.40;99.90;;;;;;5018260;28;20045;-55
2023/08/03 06:40:41;;;;;;;4.20;1.60;;;16.50;99.90;;;;;;5016630;28;20037;-55
2023/08/03 06:43:12;;;;;;;3.95;2.00;;;16.40;99.90;;;;;;5015496;28;20498;-59
2023/08/03 06:45:40;;;;;;;11.30;2.35;;;16.40;99.90;;;;;;5025535;28;20065;-57
2023/08/03 06:48:08;;;;;;;2.58;1.83;;;16.40;99.90;;;;;;5003009;28;20457;-56
2023/08/03 06:50:35;;;;;;;4.30;2.20;;;16.40;99.90;;;;;;5013967;28;20140;-59
2023/08/03 06:53:02;;;;;;;5.15;2.70;;;16.40;99.90;;;;;;5016638;28;20113;-58
2023/08/03 06:55:30;;;;;;;4.20;1.88;;;16.40;99.90;;;;;;5020160;28;20380;-56
2023/08/03 06:57:57;;;;;;;5.55;2.00;;;16.40;99.90;;;;;;5018135;28;20057;-58
2023/08/03 07:00:26;;;;;;;5.30;2.30;;;16.40;99.90;;;;;;5031954;28;20042;-59
2023/08/03 07:02:53;;;;;;;3.88;2.10;;;16.50;99.90;;;;;;5021169;28;20060;-57
2023/08/03 07:05:24;;;;;;;4.80;1.98;;;16.60;99.90;;;;;;5029000;28;20409;-59
2023/08/03 07:07:51;;;;;;;5.47;2.90;;;16.60;99.90;;;;;;5020725;28;20447;-58
2023/08/03 07:10:18;;;;;;;4.88;1.92;;;16.70;99.90;;;;;;5031629;28;20556;-57
2023/08/03 07:12:44;;;;;;;3.30;1.92;;;16.80;99.90;;;;;;5013752;28;20422;-57
2023/08/03 07:15:11;;;;;;;4.20;2.50;;;16.80;99.90;;;;;;5016343;28;20238;-54
2023/08/03 07:17:38;;;;;;;3.58;2.10;;;16.80;99.90;;;;;;5015251;28;20045;-58
2023/08/03 07:20:08;;;;;;;4.30;2.50;;;17.00;99.90;;;;;;5016543;28;20038;-59
2023/08/03 07:22:35;;;;;;;5.63;2.42;;;17.10;99.90;;;;;;5027313;28;20132;-55
2023/08/03 07:25:03;;;;;;;6.80;2.30;;;17.20;99.90;;;;;;5023233;28;20073;-57
2023/08/03 07:27:31;;;;;;;4.95;2.22;;;17.20;99.90;;;;;;5020281;28;20124;-56
2023/08/03 07:29:58;;;;;;;7.00;2.35;;;17.20;99.90;;;;;;5031903;28;20056;-58
2023/08/03 07:32:25;;;;;;;5.95;2.30;;;17.20;99.90;;;;;;5018846;28;20657;-57
2023/08/03 07:34:52;;;;;;;7.47;2.33;;;17.30;99.90;;;;;;5023494;28;20037;-58
2023/08/03 07:37:18;;;;;;;8.57;2.67;;;17.30;99.90;;;;;;5024571;28;20045;-58
2023/08/03 07:39:45;;;;;;;4.10;2.17;;;17.20;99.90;;;;;;5012551;28;20057;-57
2023/08/03 07:42:12;;;;;;;5.53;2.85;;;17.10;99.90;;;;;;5019379;28;20471;-57
2023/08/03 07:44:39;;;;;;;11.40;3.00;;;17.00;99.90;;;;;;5029758;28;20072;-56
2023/08/03 07:47:08;;;;;;;6.43;2.40;;;16.90;99.90;;;;;;5007854;28;20553;-57
2023/08/03 07:49:35;;;;;;;4.97;1.90;;;16.90;99.90;;;;;;5013221;28;20064;-57
2023/08/03 07:52:02;;;;;;;6.80;1.90;;;16.90;99.90;;;;;;5024608;28;20060;-57
2023/08/03 07:54:30;;;;;;;3.85;2.05;;;17.00;99.90;;;;;;5027103;28;20125;-56
2023/08/03 07:56:57;;;;;;;4.28;2.42;;;17.10;99.90;;;;;;5017857;28;20041;-57
2023/08/03 07:59:24;;;;;;;4.85;2.17;;;17.20;99.90;;;;;;5022494;28;20044;-58
2023/08/03 08:01:51;;;;;;;5.22;1.80;;;17.20;99.90;;;;;;5014160;28;20042;-56
2023/08/03 08:04:18;;;;;;;5.28;2.15;;;17.20;99.90;;;;;;5023025;28;20056;-54
2023/08/03 08:06:45;;;;;;;4.25;2.10;;;17.10;99.90;;;;;;5022666;28;20044;-55
2023/08/03 08:09:12;;;;;;;4.43;1.98;;;17.20;99.90;;;;;;5029863;28;20050;-58
2023/08/03 08:11:39;;;;;;;5.72;2.15;;;17.00;99.90;;;;;;5021514;28;20066;-59
2023/08/03 08:14:05;;;;;;;6.20;2.60;;;17.10;99.90;;;;;;5024184;28;20038;-57
2023/08/03 08:16:33;;;;;;;8.13;2.42;;;17.10;99.90;;;;;;5029375;28;20057;-57
2023/08/03 08:19:00;;;;;;;4.20;1.80;;;17.20;99.90;;;;;;5021650;28;20073;-56
2023/08/03 08:21:27;;;;;;;5.45;1.90;;;17.20;99.90;;;;;;5028017;28;20056;-56
2023/08/03 08:23:53;;;;;;;7.90;2.22;;;17.20;99.90;;;;;;5023071;28;20050;-58
2023/08/03 08:26:20;;;;;;;4.40;2.10;;;17.20;99.90;;;;;;5015587;28;20060;-55
2023/08/03 08:28:47;;;;;;;10.93;2.00;;;17.20;99.90;;;;;;5018476;28;20645;-56
2023/08/03 08:31:29;;;;;;;3.75;1.70;;;17.20;99.90;;;;;;5027120;28;20049;-58
2023/08/03 08:33:59;;;;;;;3.97;1.88;;;17.20;99.90;;;;;;5005003;28;20042;-57
2023/08/03 08:36:26;;;;;;;3.97;1.90;;;17.20;99.90;;;;;;5019531;28;20045;-59
2023/08/03 08:38:53;;;;;;;7.25;2.40;;;17.20;99.90;;;;;;5023042;28;20046;-55
2023/08/03 08:41:20;;;;;;;4.00;2.08;;;17.10;99.90;;;;;;5014713;28;20045;-59
2023/08/03 08:43:46;;;;;;;5.07;1.98;;;17.10;99.90;;;;;;5021750;28;20129;-59
2023/08/03 08:46:13;;;;;;;4.85;2.10;;;17.10;99.90;;;;;;5011574;28;20034;-58
2023/08/03 08:48:40;;;;;;;5.78;1.80;;;17.00;99.90;;;;;;5012540;28;20045;-58
2023/08/03 08:51:11;;;;;;;5.15;1.75;;;17.00;99.90;;;;;;5014527;28;20053;-58
2023/08/03 08:53:38;;;;;;;7.63;2.50;;;17.00;99.90;;;;;;5001826;28;20136;-58
2023/08/03 08:56:08;;;;;;;3.88;2.28;;;17.10;99.90;;;;;;5024584;28;20142;-58
2023/08/03 08:58:55;;;;;;;4.25;1.98;;;17.20;99.90;;;;;;5021115;28;20049;-54
2023/08/03 09:01:25;;;;;;;4.00;2.00;;;17.50;99.90;;;;;;5015827;28;20562;-57
2023/08/03 09:03:52;;;;;;;4.53;1.92;;;17.80;99.90;;;;;;5015746;28;20491;-56
2023/08/03 09:06:22;;;;;;;4.20;2.22;;;17.90;99.90;;;;;;5015424;28;20040;-57
2023/08/03 09:08:55;;;;;;;3.30;1.85;;;17.90;99.90;;;;;;5010792;28;20085;-58
2023/08/03 09:11:38;;;;;;;5.57;2.13;;;17.80;99.90;;;;;;5030100;28;20038;-58
2023/08/03 09:14:07;;;;;;;8.02;2.05;;;17.60;99.90;;;;;;5027289;28;20041;-55
2023/08/03 09:16:35;;;;;;;2.92;1.95;;;17.60;99.90;;;;;;5029201;28;20045;-54
2023/08/03 09:19:02;;;;;;;5.32;2.03;;;17.20;99.90;;;;;;5018715;28;20050;-57
2023/08/03 09:21:28;;;;;;;4.25;2.05;;;17.20;99.90;;;;;;5027003;28;20049;-58
2023/08/03 09:23:59;;;;;;;5.32;2.22;;;17.10;99.90;;;;;;5026642;28;20048;-55
2023/08/03 09:26:29;;;;;;;4.78;2.20;;;17.00;99.90;;;;;;5030234;28;20143;-56
2023/08/03 09:28:59;;;;;;;3.72;2.20;;;16.90;99.90;;;;;;5015916;28;20052;-57
2023/08/03 09:31:29;;;;;;;4.18;2.30;;;16.90;99.90;;;;;;5028182;28;20052;-56
2023/08/03 09:34:00;;;;;;;7.88;2.35;;;16.90;99.90;;;;;;5015073;28;20049;-58
2023/08/03 09:36:28;;;;;;;8.88;2.80;;;16.90;99.90;;;;;;5020023;28;20034;-59
2023/08/03 09:39:12;;;;;;;8.45;2.53;;;17.10;99.90;;;;;;5025196;28;20049;-57
2023/08/03 09:41:42;;;;;;;9.18;2.95;;;17.20;99.90;;;;;;5024460;28;20498;-59
2023/08/03 09:44:14;;;;;;;8.52;2.85;;;17.40;99.90;;;;;;5024213;28;20494;-58
2023/08/03 09:46:41;;;;;;;7.72;2.95;;;17.60;99.90;;;;;;5014752;28;20042;-58
2023/08/03 09:49:09;;;;;;;5.82;1.88;;;17.80;99.90;;;;;;5017002;28;20049;-58
2023/08/03 09:51:43;;;;;;;3.47;1.60;;;18.10;99.90;;;;;;5021036;28;20042;-58
2023/08/03 09:54:38;;;;;;;4.03;1.88;;;18.40;99.90;;;;;;5032864;28;20584;-58
2023/08/03 09:57:10;;;;;;;2.97;1.73;;;19.00;99.90;;;;;;5009785;28;20049;-59
2023/08/03 09:59:44;;;;;;;4.38;2.10;;;19.10;99.90;;;;;;5020672;28;20425;-59
2023/08/03 10:02:19;;;;;;;4.20;1.95;;;19.40;99.90;;;;;;5027583;28;20047;-58
2023/08/03 10:04:55;;;;;;;4.70;2.05;;;19.60;99.90;;;;;;5015207;28;20077;-58
2023/08/03 10:07:28;;;;;;;3.72;1.83;;;19.30;99.90;;;;;;5019994;28;20061;-59
2023/08/03 10:09:58;;;;;;;4.80;1.88;;;19.60;99.90;;;;;;5015599;28;20034;-57
2023/08/03 10:12:35;;;;;;;4.55;2.45;;;19.90;99.90;;;;;;5027914;28;20045;-55
2023/08/03 10:15:04;;;;;;;8.30;2.28;;;20.00;99.90;;;;;;5014444;28;20041;-58
2023/08/03 10:17:32;;;;;;;9.77;2.50;;;20.00;99.90;;;;;;5031620;28;20046;-59
2023/08/03 10:20:00;;;;;;;6.28;2.28;;;20.00;99.90;;;;;;5013609;28;20413;-57
2023/08/03 10:22:27;;;;;;;5.72;2.42;;;19.90;99.90;;;;;;5032906;28;20402;-58
2023/08/03 10:25:19;;;;;;;3.53;1.75;;;19.90;99.90;;;;;;5013314;28;20060;-57
2023/08/03 10:28:14;;;;;;;7.72;2.30;;;19.90;99.90;;;;;;5029921;28;20520;-58
2023/08/03 10:31:04;;;;;;;5.32;2.15;;;19.70;99.90;;;;;;5021458;28;20049;-55
2023/08/03 10:33:47;;;;;;;4.55;1.70;;;19.40;99.90;;;;;;5018101;28;20061;-59
2023/08/03 10:36:33;;;;;;;3.25;1.65;;;19.20;99.90;;;;;;5019144;28;20037;-58
2023/08/03 10:39:07;;;;;;;6.53;1.90;;;19.10;99.90;;;;;;5012748;28;20052;-59
2023/08/03 10:41:38;;;;;;;4.22;1.95;;;19.20;99.90;;;;;;5032574;28;20034;-59
2023/08/03 10:44:05;;;;;;;5.95;2.35;;;19.20;99.90;;;;;;5023007;28;20133;-58
2023/08/03 10:46:34;;;;;;;6.05;1.88;;;19.30;99.90;;;;;;5025184;28;20463;-55
2023/08/03 10:49:19;;;;;;;5.00;2.13;;;19.20;99.90;;;;;;5001735;28;20108;-55
2023/08/03 10:51:54;;;;;;;5.80;2.20;;;19.20;99.90;;;;;;5005944;28;20121;-54
2023/08/03 10:54:28;;;;;;;4.25;1.88;;;19.10;99.90;;;;;;5011162;28;20057;-58
2023/08/03 10:57:01;;;;;;;5.63;1.90;;;19.10;99.90;;;;;;5011670;28;20483;-57
2023/08/03 10:59:28;;;;;;;5.28;2.92;;;19.40;99.90;;;;;;5013396;28;20041;-57
2023/08/03 11:01:55;;;;;;;;;;;19.50;99.90;;;;;;5029477;28;20041;-58
2023/08/03 11:04:25;;;;;;;6.85;1.70;;;19.40;99.90;;;;;;5011886;28;20293;-59
2023/08/03 11:06:53;;;;;;;4.15;2.00;;;19.40;99.90;;;;;;5020355;28;20048;-59
2023/08/03 11:09:20;;;;;;;5.53;2.15;;;19.40;99.90;;;;;;5017806;28;20037;-58
2023/08/03 11:11:47;;;;;;;5.30;2.10;;;19.40;99.90;;;;;;5030293;28;20042;-56
2023/08/03 11:14:15;;;;;;;7.13;2.30;;;19.30;99.90;;;;;;4999934;28;20093;-59
2023/08/03 11:16:42;;;;;;;7.05;1.67;;;19.30;99.90;;;;;;5026745;28;20037;-58
2023/08/03 11:19:13;;;;;;;5.00;2.08;;;19.40;99.90;;;;;;5014425;28;20034;-59
2023/08/03 11:21:43;;;;;;;5.75;2.15;;;19.40;99.90;;;;;;5024799;28;20069;-58
2023/08/03 11:24:10;;;;;;;6.25;2.22;;;19.30;99.90;;;;;;5023188;28;20037;-56
2023/08/03 11:26:37;;;;;;;;;;;19.40;99.90;;;;;;5026363;28;20041;-55
2023/08/03 11:29:06;;;;;;;7.38;2.42;;;19.40;99.90;;;;;;5006691;28;19921;-56
2023/08/03 11:31:33;;;;;;;4.07;1.90;;;19.50;99.90;;;;;;5025299;28;20045;-54
2023/08/03 11:34:00;;;;;;;4.13;2.10;;;19.30;99.90;;;;;;5029110;28;20046;-58
2023/08/03 11:36:27;;;;;;;4.65;1.80;;;19.40;99.90;;;;;;5022809;28;20057;-56
2023/08/03 11:38:53;;;;;;;5.90;2.25;;;19.40;99.90;;;;;;5020332;28;20080;-55
2023/08/03 11:41:24;;;;;;;5.55;2.00;;;19.40;99.90;;;;;;5029206;28;20049;-53
2023/08/03 11:43:59;;;;;;;5.38;1.80;;;19.50;99.90;;;;;;5031116;28;20045;-56
2023/08/03 11:46:27;;;;;;;4.72;2.20;;;19.50;99.90;;;;;;5015192;28;20504;-58
2023/08/03 11:48:58;;;;;;;6.15;1.90;;;19.60;99.90;;;;;;5020323;28;20095;-58
2023/08/03 11:51:36;;;;;;;5.57;1.98;;;19.50;99.90;;;;;;5021531;28;20052;-58
2023/08/03 11:54:03;;;;;;;;;;;19.30;99.90;;;;;;5027406;28;20451;-56
2023/08/03 11:56:31;;;;;;;4.45;1.60;;;19.40;99.90;;;;;;5007426;28;19932;-58
2023/08/03 11:59:11;;;;;;;4.93;1.70;;;19.40;99.90;;;;;;5012761;28;20115;-55
2023/08/03 12:01:45;;;;;;;6.72;1.90;;;19.40;99.90;;;;;;5018201;28;20373;-58
2023/08/03 12:04:14;;;;;;;3.80;1.63;;;19.50;99.90;;;;;;5024512;28;20056;-58
2023/08/03 12:06:43;;;;;;;4.55;1.75;;;19.50;99.90;;;;;;5017158;28;20494;-57
2023/08/03 12:09:27;;;;;;;3.90;1.55;;;19.60;99.90;;;;;;5028076;28;20033;-53
2023/08/03 12:12:03;;;;;;;3.88;1.70;;;19.70;99.90;;;;;;5010201;28;20145;-56
2023/08/03 12:14:30;;;;;;;3.47;1.85;;;19.70;99.90;;;;;;5000743;28;20050;-57
2023/08/03 12:16:57;;;;;;;4.85;2.13;;;19.60;99.90;;;;;;5022131;28;20061;-57
2023/08/03 12:19:32;;;;;;;4.55;1.63;;;19.70;99.90;;;;;;5019031;28;20405;-56
2023/08/03 12:22:03;;;;;;;3.58;1.77;;;19.50;99.90;;;;;;5027656;28;20556;-57
2023/08/03 12:24:31;;;;;;;5.88;1.67;;;19.50;99.90;;;;;;5002465;28;20049;-54
2023/08/03 12:26:57;;;;;;;3.17;1.85;;;19.50;99.90;;;;;;5026604;28;20057;-55
2023/08/03 12:29:34;;;;;;;6.97;2.03;;;19.60;99.90;;;;;;5028039;28;20095;-54
2023/08/03 12:32:08;;;;;;;5.30;1.83;;;19.70;99.90;;;;;;5021821;28;20281;-56
2023/08/03 12:34:35;;;;;;;5.35;1.60;;;19.80;99.90;;;;;;5020120;28;20471;-57
2023/08/03 12:37:01;;;;;;;;;;;20.00;99.90;;;;;;5020173;28;20081;-54
2023/08/03 12:39:29;;;;;;;5.85;2.00;;;19.90;99.90;;;;;;5025843;28;19921;-54
2023/08/03 12:41:56;;;;;;;6.43;1.65;;;19.80;99.90;;;;;;5028008;28;20080;-56
2023/08/03 12:44:26;;;;;;;8.45;2.05;;;19.90;99.90;;;;;;5020693;28;20071;-56
2023/08/03 12:46:52;;;;;;;5.55;1.80;;;20.10;99.90;;;;;;5029990;28;20115;-56
2023/08/03 12:49:21;;;;;;;6.13;1.75;;;20.20;99.90;;;;;;5013980;28;20038;-54
2023/08/03 12:51:47;;;;;;;3.40;1.67;;;20.30;99.90;;;;;;5033584;28;20095;-55
2023/08/03 12:54:14;;;;;;;5.60;1.42;;;20.30;99.90;;;;;;5032098;28;20046;-55
2023/08/03 12:56:41;;;;;;;4.70;1.85;;;20.30;99.90;;;;;;5025157;28;20038;-58